sensor_id;sensor_type;location;lat;lon;timestamp;pressure;altitude;pressure_sealevel;temperature;humidity
7337;BME280;54510;42.016;23.098;2023-02-18T00:01:21;-21240.47;;;3.85;nan
7337;BME280;54510;42.016;23.098;2023-02-18T00:03:47;-21241.31;;;3.88;nan
7337;BME280;54510;42.016;23.098;2023-02-18T00:06:25;-21237.53;;;3.75;nan
7337;BME280;54510;42.016;23.098;2023-02-18T00:08:51;-21232.66;;;3.57;nan
7337;BME280;54510;42.016;23.098;2023-02-18T00:11:19;-21236.97;;;3.73;nan
7337;BME280;54510;42.016;23.098;2023-02-18T00:13:57;-21232.78;;;3.57;nan
7337;BME280;54510;42.016;23.098;2023-02-18T00:16:23;-21230.69;;;3.50;nan
7337;BME280;54510;42.016;23.098;2023-02-18T00:18:49;-21230.53;;;3.49;nan
7337;BME280;54510;42.016;23.098;2023-02-18T00:21:15;-21238.25;;;3.77;nan
7337;BME280;54510;42.016;23.098;2023-02-18T00:23:41;-21235.44;;;3.67;nan
7337;BME280;54510;42.016;23.098;2023-02-18T00:26:12;-21235.59;;;3.68;nan
7337;BME280;54510;42.016;23.098;2023-02-18T00:28:38;-21230.69;;;3.50;nan
7337;BME280;54510;42.016;23.098;2023-02-18T00:31:09;-21231.25;;;3.52;nan
7337;BME280;54510;42.016;23.098;2023-02-18T00:33:35;-21232.09;;;3.55;nan
7337;BME280;54510;42.016;23.098;2023-02-18T00:36:06;-21222.44;;;3.20;nan
7337;BME280;54510;42.016;23.098;2023-02-18T00:38:32;-21224.94;;;3.29;nan
7337;BME280;54510;42.016;23.098;2023-02-18T00:40:58;-21225.09;;;3.30;nan
7337;BME280;54510;42.016;23.098;2023-02-18T00:43:23;-21226.63;;;3.35;nan
7337;BME280;54510;42.016;23.098;2023-02-18T00:45:49;-21228.44;;;3.42;nan
7337;BME280;54510;42.016;23.098;2023-02-18T00:48:14;-21229.16;;;3.44;nan
7337;BME280;54510;42.016;23.098;2023-02-18T00:50:40;-21232.38;;;3.56;nan
7337;BME280;54510;42.016;23.098;2023-02-18T00:53:05;-21234.03;;;3.62;nan
7337;BME280;54510;42.016;23.098;2023-02-18T00:55:30;-21234.75;;;3.65;nan
7337;BME280;54510;42.016;23.098;2023-02-18T00:57:56;-21234.31;;;3.63;nan
7337;BME280;54510;42.016;23.098;2023-02-18T01:00:21;-21232.94;;;3.58;nan
7337;BME280;54510;42.016;23.098;2023-02-18T01:02:49;-21229.44;;;3.45;nan
7337;BME280;54510;42.016;23.098;2023-02-18T01:05:19;-21229.72;;;3.46;nan
7337;BME280;54510;42.016;23.098;2023-02-18T01:07:45;-21229.16;;;3.44;nan
7337;BME280;54510;42.016;23.098;2023-02-18T01:10:11;-21227.59;;;3.39;nan
7337;BME280;54510;42.016;23.098;2023-02-18T01:12:37;-21224.25;;;3.27;nan
7337;BME280;54510;42.016;23.098;2023-02-18T01:15:04;-21227.19;;;3.37;nan
7337;BME280;54510;42.016;23.098;2023-02-18T01:17:29;-21230.00;;;3.47;nan
7337;BME280;54510;42.016;23.098;2023-02-18T01:19:55;-21226.63;;;3.35;nan
7337;BME280;54510;42.016;23.098;2023-02-18T01:22:21;-21227.47;;;3.38;nan
7337;BME280;54510;42.016;23.098;2023-02-18T01:24:46;-21225.38;;;3.31;nan
7337;BME280;54510;42.016;23.098;2023-02-18T01:27:12;-21221.16;;;3.15;nan
7337;BME280;54510;42.016;23.098;2023-02-18T01:29:37;-21223.53;;;3.24;nan
7337;BME280;54510;42.016;23.098;2023-02-18T01:32:03;-21217.53;;;3.02;nan
7337;BME280;54510;42.016;23.098;2023-02-18T01:34:28;-21216.84;;;3.00;nan
7337;BME280;54510;42.016;23.098;2023-02-18T01:36:54;-21216.56;;;2.99;nan
7337;BME280;54510;42.016;23.098;2023-02-18T01:39:20;-21214.59;;;2.92;nan
7337;BME280;54510;42.016;23.098;2023-02-18T01:41:45;-21213.06;;;2.86;nan
7337;BME280;54510;42.016;23.098;2023-02-18T01:44:25;-21209.28;;;2.72;nan
7337;BME280;54510;42.016;23.098;2023-02-18T01:46:51;-21211.50;;;2.81;nan
7337;BME280;54510;42.016;23.098;2023-02-18T01:49:21;-21214.59;;;2.92;nan
7337;BME280;54510;42.016;23.098;2023-02-18T01:51:53;-21216.00;;;2.97;nan
7337;BME280;54510;42.016;23.098;2023-02-18T01:54:26;-21209.41;;;2.73;nan
7337;BME280;54510;42.016;23.098;2023-02-18T01:56:56;-21214.59;;;2.92;nan
7337;BME280;54510;42.016;23.098;2023-02-18T01:59:27;-21220.75;;;3.14;nan
7337;BME280;54510;42.016;23.098;2023-02-18T02:01:54;-21224.66;;;3.28;nan
7337;BME280;54510;42.016;23.098;2023-02-18T02:04:20;-21225.66;;;3.32;nan
7337;BME280;54510;42.016;23.098;2023-02-18T02:06:46;-21222.16;;;3.19;nan
7337;BME280;54510;42.016;23.098;2023-02-18T02:09:15;-21218.78;;;3.07;nan
7337;BME280;54510;42.016;23.098;2023-02-18T02:17:31;-21219.50;;;3.09;nan
7337;BME280;54510;42.016;23.098;2023-02-18T02:30:46;-21220.34;;;3.12;nan
7337;BME280;54510;42.016;23.098;2023-02-18T02:33:57;-21218.94;;;3.07;nan
7337;BME280;54510;42.016;23.098;2023-02-18T02:36:47;-21216.97;;;3.00;nan
7337;BME280;54510;42.016;23.098;2023-02-18T02:39:24;-21212.06;;;2.83;nan
7337;BME280;54510;42.016;23.098;2023-02-18T02:44:34;-21208.44;;;2.69;nan
7337;BME280;54510;42.016;23.098;2023-02-18T02:47:10;-21212.34;;;2.84;nan
7337;BME280;54510;42.016;23.098;2023-02-18T02:49:49;-21209.00;;;2.71;nan
7337;BME280;54510;42.016;23.098;2023-02-18T02:52:27;-21210.25;;;2.76;nan
7337;BME280;54510;42.016;23.098;2023-02-18T02:54:54;-21209.00;;;2.71;nan
7337;BME280;54510;42.016;23.098;2023-02-18T02:59:49;-21206.88;;;2.64;nan
7337;BME280;54510;42.016;23.098;2023-02-18T03:06:04;-21208.28;;;2.69;nan
7337;BME280;54510;42.016;23.098;2023-02-18T03:08:11;-21197.22;;;2.29;nan
7337;BME280;54510;42.016;23.098;2023-02-18T03:18:45;-21196.09;;;2.25;nan
7337;BME280;54510;42.016;23.098;2023-02-18T03:21:18;-21194.97;;;2.21;nan
7337;BME280;54510;42.016;23.098;2023-02-18T03:23:53;-21196.25;;;2.25;nan
7337;BME280;54510;42.016;23.098;2023-02-18T03:26:20;-21193.00;;;2.14;nan
7337;BME280;54510;42.016;23.098;2023-02-18T03:28:50;-21193.28;;;2.15;nan
7337;BME280;54510;42.016;23.098;2023-02-18T03:31:19;-21193.16;;;2.14;nan
7337;BME280;54510;42.016;23.098;2023-02-18T03:33:50;-21192.88;;;2.13;nan
7337;BME280;54510;42.016;23.098;2023-02-18T03:36:19;-21193.44;;;2.15;nan
7337;BME280;54510;42.016;23.098;2023-02-18T03:38:59;-21195.41;;;2.22;nan
7337;BME280;54510;42.016;23.098;2023-02-18T03:41:25;-21190.63;;;2.05;nan
7337;BME280;54510;42.016;23.098;2023-02-18T03:43:52;-21188.81;;;1.98;nan
7337;BME280;54510;42.016;23.098;2023-02-18T03:46:20;-21188.53;;;1.97;nan
7337;BME280;54510;42.016;23.098;2023-02-18T03:48:46;-21191.19;;;2.07;nan
7337;BME280;54510;42.016;23.098;2023-02-18T03:51:11;-21188.13;;;1.96;nan
7337;BME280;54510;42.016;23.098;2023-02-18T03:53:37;-21187.84;;;1.95;nan
7337;BME280;54510;42.016;23.098;2023-02-18T03:56:02;-21185.59;;;1.87;nan
7337;BME280;54510;42.016;23.098;2023-02-18T03:58:28;-21183.91;;;1.81;nan
7337;BME280;54510;42.016;23.098;2023-02-18T04:00:53;-21178.31;;;1.61;nan
7337;BME280;54510;42.016;23.098;2023-02-18T04:03:19;-21177.03;;;1.56;nan
7337;BME280;54510;42.016;23.098;2023-02-18T04:05:44;-21182.09;;;1.74;nan
7337;BME280;54510;42.016;23.098;2023-02-18T04:08:09;-21183.06;;;1.78;nan
7337;BME280;54510;42.016;23.098;2023-02-18T04:10:35;-21185.59;;;1.87;nan
7337;BME280;54510;42.016;23.098;2023-02-18T04:13:00;-21184.47;;;1.83;nan
7337;BME280;54510;42.016;23.098;2023-02-18T04:15:26;-21185.16;;;1.85;nan
7337;BME280;54510;42.016;23.098;2023-02-18T04:17:51;-21189.50;;;2.01;nan
7337;BME280;54510;42.016;23.098;2023-02-18T04:20:17;-21190.91;;;2.06;nan
7337;BME280;54510;42.016;23.098;2023-02-18T04:22:43;-21193.56;;;2.16;nan
7337;BME280;54510;42.016;23.098;2023-02-18T04:25:08;-21189.09;;;1.99;nan
7337;BME280;54510;42.016;23.098;2023-02-18T04:27:34;-21189.38;;;2.01;nan
7337;BME280;54510;42.016;23.098;2023-02-18T04:29:59;-21186.56;;;1.90;nan
7337;BME280;54510;42.016;23.098;2023-02-18T04:32:24;-21187.69;;;1.94;nan
7337;BME280;54510;42.016;23.098;2023-02-18T04:34:50;-21192.19;;;2.11;nan
7337;BME280;54510;42.016;23.098;2023-02-18T04:37:15;-21193.84;;;2.17;nan
7337;BME280;54510;42.016;23.098;2023-02-18T04:39:41;-21190.06;;;2.03;nan
7337;BME280;54510;42.016;23.098;2023-02-18T04:42:06;-21191.63;;;2.09;nan
7337;BME280;54510;42.016;23.098;2023-02-18T04:44:35;-21188.66;;;1.98;nan
7337;BME280;54510;42.016;23.098;2023-02-18T04:47:01;-21184.03;;;1.81;nan
7337;BME280;54510;42.016;23.098;2023-02-18T04:49:27;-21187.69;;;1.94;nan
7337;BME280;54510;42.016;23.098;2023-02-18T04:51:52;-21189.50;;;2.01;nan
7337;BME280;54510;42.016;23.098;2023-02-18T04:54:18;-21190.22;;;2.04;nan
7337;BME280;54510;42.016;23.098;2023-02-18T04:56:43;-21190.06;;;2.03;nan
7337;BME280;54510;42.016;23.098;2023-02-18T04:59:08;-21188.25;;;1.96;nan
7337;BME280;54510;42.016;23.098;2023-02-18T05:01:35;-21189.38;;;2.01;nan
7337;BME280;54510;42.016;23.098;2023-02-18T05:04:01;-21187.84;;;1.95;nan
7337;BME280;54510;42.016;23.098;2023-02-18T05:06:26;-21186.56;;;1.90;nan
7337;BME280;54510;42.016;23.098;2023-02-18T05:08:52;-21178.31;;;1.61;nan
7337;BME280;54510;42.016;23.098;2023-02-18T05:11:17;-21175.78;;;1.51;nan
7337;BME280;54510;42.016;23.098;2023-02-18T05:13:42;-21179.56;;;1.65;nan
7337;BME280;54510;42.016;23.098;2023-02-18T05:16:08;-21181.81;;;1.73;nan
7337;BME280;54510;42.016;23.098;2023-02-18T05:18:33;-21181.25;;;1.71;nan
7337;BME280;54510;42.016;23.098;2023-02-18T05:20:59;-21178.03;;;1.59;nan
7337;BME280;54510;42.016;23.098;2023-02-18T05:23:24;-21175.78;;;1.51;nan
7337;BME280;54510;42.016;23.098;2023-02-18T05:25:50;-21175.06;;;1.49;nan
7337;BME280;54510;42.016;23.098;2023-02-18T05:28:16;-21174.94;;;1.48;nan
7337;BME280;54510;42.016;23.098;2023-02-18T05:30:41;-21176.19;;;1.53;nan
7337;BME280;54510;42.016;23.098;2023-02-18T05:33:07;-21171.16;;;1.35;nan
7337;BME280;54510;42.016;23.098;2023-02-18T05:35:32;-21171.16;;;1.35;nan
7337;BME280;54510;42.016;23.098;2023-02-18T05:37:57;-21177.59;;;1.58;nan
7337;BME280;54510;42.016;23.098;2023-02-18T05:40:23;-21177.19;;;1.56;nan
7337;BME280;54510;42.016;23.098;2023-02-18T05:42:48;-21179.97;;;1.67;nan
7337;BME280;54510;42.016;23.098;2023-02-18T05:45:14;-21180.97;;;1.70;nan
7337;BME280;54510;42.016;23.098;2023-02-18T05:47:39;-21184.75;;;1.84;nan
7337;BME280;54510;42.016;23.098;2023-02-18T05:50:05;-21185.88;;;1.88;nan
7337;BME280;54510;42.016;23.098;2023-02-18T05:52:31;-21187.41;;;1.93;nan
7337;BME280;54510;42.016;23.098;2023-02-18T05:54:56;-21189.66;;;2.02;nan
7337;BME280;54510;42.016;23.098;2023-02-18T05:57:22;-21188.81;;;1.98;nan
7337;BME280;54510;42.016;23.098;2023-02-18T05:59:47;-21191.34;;;2.08;nan
7337;BME280;54510;42.016;23.098;2023-02-18T06:02:13;-21195.25;;;2.22;nan
7337;BME280;54510;42.016;23.098;2023-02-18T06:04:38;-21196.25;;;2.25;nan
7337;BME280;54510;42.016;23.098;2023-02-18T06:07:05;-21197.94;;;2.31;nan
7337;BME280;54510;42.016;23.098;2023-02-18T06:09:30;-21199.31;;;2.36;nan
7337;BME280;54510;42.016;23.098;2023-02-18T06:11:56;-21196.09;;;2.25;nan
7337;BME280;54510;42.016;23.098;2023-02-18T06:14:22;-21196.94;;;2.28;nan
7337;BME280;54510;42.016;23.098;2023-02-18T06:16:47;-21194.69;;;2.20;nan
7337;BME280;54510;42.016;23.098;2023-02-18T06:19:12;-21198.34;;;2.33;nan
7337;BME280;54510;42.016;23.098;2023-02-18T06:21:38;-21198.91;;;2.35;nan
7337;BME280;54510;42.016;23.098;2023-02-18T06:24:03;-21199.19;;;2.36;nan
7337;BME280;54510;42.016;23.098;2023-02-18T06:26:29;-21200.16;;;2.39;nan
7337;BME280;54510;42.016;23.098;2023-02-18T06:28:55;-21204.78;;;2.56;nan
7337;BME280;54510;42.016;23.098;2023-02-18T06:31:20;-21200.59;;;2.41;nan
7337;BME280;54510;42.016;23.098;2023-02-18T06:33:46;-21207.72;;;2.67;nan
7337;BME280;54510;42.016;23.098;2023-02-18T06:36:11;-21211.22;;;2.80;nan
7337;BME280;54510;42.016;23.098;2023-02-18T06:38:42;-21218.38;;;3.05;nan
7337;BME280;54510;42.016;23.098;2023-02-18T06:41:09;-21211.50;;;2.81;nan
7337;BME280;54510;42.016;23.098;2023-02-18T06:43:34;-21215.00;;;2.93;nan
7337;BME280;54510;42.016;23.098;2023-02-18T06:46:00;-21212.34;;;2.84;nan
7337;BME280;54510;42.016;23.098;2023-02-18T06:48:26;-21213.06;;;2.86;nan
7337;BME280;54510;42.016;23.098;2023-02-18T06:50:51;-21215.28;;;2.94;nan
7337;BME280;54510;42.016;23.098;2023-02-18T06:53:17;-21220.06;;;3.11;nan
7337;BME280;54510;42.016;23.098;2023-02-18T06:55:43;-21218.22;;;3.05;nan
7337;BME280;54510;42.016;23.098;2023-02-18T06:58:10;-21218.78;;;3.07;nan
7337;BME280;54510;42.016;23.098;2023-02-18T07:00:35;-21217.66;;;3.03;nan
7337;BME280;54510;42.016;23.098;2023-02-18T07:03:01;-21226.75;;;3.36;nan
7337;BME280;54510;42.016;23.098;2023-02-18T07:05:27;-21223.53;;;3.24;nan
7337;BME280;54510;42.016;23.098;2023-02-18T07:07:52;-21229.00;;;3.44;nan
7337;BME280;54510;42.016;23.098;2023-02-18T07:10:17;-21226.22;;;3.34;nan
7337;BME280;54510;42.016;23.098;2023-02-18T07:12:43;-21235.31;;;3.67;nan
7337;BME280;54510;42.016;23.098;2023-02-18T07:15:09;-21235.44;;;3.67;nan
7337;BME280;54510;42.016;23.098;2023-02-18T07:17:34;-21235.31;;;3.67;nan
7337;BME280;54510;42.016;23.098;2023-02-18T07:20:00;-21236.13;;;3.70;nan
7337;BME280;54510;42.016;23.098;2023-02-18T07:22:25;-21242.28;;;3.92;nan
7337;BME280;54510;42.016;23.098;2023-02-18T07:24:52;-21247.06;;;4.09;nan
7337;BME280;54510;42.016;23.098;2023-02-18T07:27:19;-21253.34;;;4.32;nan
7337;BME280;54510;42.016;23.098;2023-02-18T07:29:44;-21256.69;;;4.44;nan
7337;BME280;54510;42.016;23.098;2023-02-18T07:32:14;-21265.78;;;4.77;nan
7337;BME280;54510;42.016;23.098;2023-02-18T07:34:40;-21270.94;;;4.96;nan
7337;BME280;54510;42.016;23.098;2023-02-18T07:37:05;-21269.41;;;4.90;nan
7337;BME280;54510;42.016;23.098;2023-02-18T07:39:38;-21266.63;;;4.80;nan
7337;BME280;54510;42.016;23.098;2023-02-18T07:42:04;-21273.75;;;5.06;nan
7337;BME280;54510;42.016;23.098;2023-02-18T07:44:30;-21280.31;;;5.30;nan
7337;BME280;54510;42.016;23.098;2023-02-18T07:46:55;-21288.81;;;5.61;nan
7337;BME280;54510;42.016;23.098;2023-02-18T07:49:21;-21289.09;;;5.62;nan
7337;BME280;54510;42.016;23.098;2023-02-18T07:51:47;-21296.22;;;5.87;nan
7337;BME280;54510;42.016;23.098;2023-02-18T07:54:13;-21297.91;;;5.93;nan
7337;BME280;54510;42.016;23.098;2023-02-18T07:56:39;-21302.94;;;6.12;nan
7337;BME280;54510;42.016;23.098;2023-02-18T07:59:04;-21301.41;;;6.06;nan
7337;BME280;54510;42.016;23.098;2023-02-18T08:01:30;-21298.75;;;5.97;nan
7337;BME280;54510;42.016;23.098;2023-02-18T08:03:55;-21301.81;;;6.08;nan
7337;BME280;54510;42.016;23.098;2023-02-18T08:06:30;-21307.53;;;6.28;nan
7337;BME280;54510;42.016;23.098;2023-02-18T08:08:57;-21307.13;;;6.27;nan
7337;BME280;54510;42.016;23.098;2023-02-18T08:11:23;-21312.97;;;6.48;nan
7337;BME280;54510;42.016;23.098;2023-02-18T08:13:48;-21313.53;;;6.50;nan
7337;BME280;54510;42.016;23.098;2023-02-18T08:16:16;-21310.19;;;6.38;nan
7337;BME280;54510;42.016;23.098;2023-02-18T08:18:42;-21312.56;;;6.47;nan
7337;BME280;54510;42.016;23.098;2023-02-18T08:21:07;-21318.28;;;6.67;nan
7337;BME280;54510;42.016;23.098;2023-02-18T08:23:33;-21306.00;;;6.23;nan
7337;BME280;54510;42.016;23.098;2023-02-18T08:25:58;-21308.50;;;6.32;nan
7337;BME280;54510;42.016;23.098;2023-02-18T08:28:24;-21319.38;;;6.71;nan
7337;BME280;54510;42.016;23.098;2023-02-18T08:30:51;-21325.25;;;6.93;nan
7337;BME280;54510;42.016;23.098;2023-02-18T08:33:18;-21318.84;;;6.69;nan
7337;BME280;54510;42.016;23.098;2023-02-18T08:35:48;-21314.66;;;6.54;nan
7337;BME280;54510;42.016;23.098;2023-02-18T08:38:13;-21319.66;;;6.72;nan
7337;BME280;54510;42.016;23.098;2023-02-18T08:40:39;-21322.31;;;6.82;nan
7337;BME280;54510;42.016;23.098;2023-02-18T08:43:06;-21326.09;;;6.96;nan
7337;BME280;54510;42.016;23.098;2023-02-18T08:45:31;-21328.03;;;7.03;nan
7337;BME280;54510;42.016;23.098;2023-02-18T08:47:56;-21333.47;;;7.23;nan
7337;BME280;54510;42.016;23.098;2023-02-18T08:50:22;-21331.78;;;7.17;nan
7337;BME280;54510;42.016;23.098;2023-02-18T08:52:51;-21333.63;;;7.23;nan
7337;BME280;54510;42.016;23.098;2023-02-18T08:55:17;-21337.09;;;7.36;nan
7337;BME280;54510;42.016;23.098;2023-02-18T08:57:46;-21339.19;;;7.43;nan
7337;BME280;54510;42.016;23.098;2023-02-18T09:00:12;-21343.09;;;7.58;nan
7337;BME280;54510;42.016;23.098;2023-02-18T09:02:38;-21344.34;;;7.62;nan
7337;BME280;54510;42.016;23.098;2023-02-18T09:05:04;-21350.06;;;7.83;nan
7337;BME280;54510;42.016;23.098;2023-02-18T09:07:29;-21352.28;;;7.91;nan
7337;BME280;54510;42.016;23.098;2023-02-18T09:09:55;-21349.91;;;7.82;nan
7337;BME280;54510;42.016;23.098;2023-02-18T09:12:20;-21341.00;;;7.50;nan
7337;BME280;54510;42.016;23.098;2023-02-18T09:14:47;-21345.59;;;7.67;nan
7337;BME280;54510;42.016;23.098;2023-02-18T09:17:12;-21352.00;;;7.90;nan
7337;BME280;54510;42.016;23.098;2023-02-18T09:19:38;-21356.72;;;8.07;nan
7337;BME280;54510;42.016;23.098;2023-02-18T09:22:03;-21360.34;;;8.20;nan
7337;BME280;54510;42.016;23.098;2023-02-18T09:24:28;-21355.06;;;8.01;nan
7337;BME280;54510;42.016;23.098;2023-02-18T09:26:54;-21359.66;;;8.18;nan
7337;BME280;54510;42.016;23.098;2023-02-18T09:29:19;-21362.84;;;8.29;nan
7337;BME280;54510;42.016;23.098;2023-02-18T09:31:45;-21370.66;;;8.58;nan
7337;BME280;54510;42.016;23.098;2023-02-18T09:34:10;-21359.09;;;8.16;nan
7337;BME280;54510;42.016;23.098;2023-02-18T09:36:37;-21370.25;;;8.56;nan
7337;BME280;54510;42.016;23.098;2023-02-18T09:39:04;-21382.06;;;8.99;nan
7337;BME280;54510;42.016;23.098;2023-02-18T09:41:47;-21389.44;;;9.26;nan
7337;BME280;54510;42.016;23.098;2023-02-18T09:46:49;-21387.34;;;9.19;nan
7337;BME280;54510;42.016;23.098;2023-02-18T09:49:19;-21400.13;;;9.65;nan
7337;BME280;54510;42.016;23.098;2023-02-18T09:51:45;-21401.53;;;9.70;nan
7337;BME280;54510;42.016;23.098;2023-02-18T09:54:15;-21400.13;;;9.65;nan
7337;BME280;54510;42.016;23.098;2023-02-18T09:56:42;-21407.78;;;9.93;nan
7337;BME280;54510;42.016;23.098;2023-02-18T09:59:15;-21411.09;;;10.05;nan
7337;BME280;54510;42.016;23.098;2023-02-18T10:01:42;-21411.66;;;10.07;nan
7337;BME280;54510;42.016;23.098;2023-02-18T10:04:16;-21410.84;;;10.04;nan
7337;BME280;54510;42.016;23.098;2023-02-18T10:06:45;-21410.41;;;10.03;nan
7337;BME280;54510;42.016;23.098;2023-02-18T10:09:36;-21415.69;;;10.22;nan
7337;BME280;54510;42.016;23.098;2023-02-18T10:12:20;-21418.06;;;10.30;nan
7337;BME280;54510;42.016;23.098;2023-02-18T10:14:59;-21417.94;;;10.30;nan
7337;BME280;54510;42.016;23.098;2023-02-18T10:17:27;-21416.81;;;10.26;nan
7337;BME280;54510;42.016;23.098;2023-02-18T10:19:54;-21419.31;;;10.35;nan
7337;BME280;54510;42.016;23.098;2023-02-18T10:22:23;-21422.50;;;10.47;nan
7337;BME280;54510;42.016;23.098;2023-02-18T10:24:56;-21424.03;;;10.52;nan
7337;BME280;54510;42.016;23.098;2023-02-18T10:27:31;-21422.09;;;10.45;nan
7337;BME280;54510;42.016;23.098;2023-02-18T10:30:32;-21423.34;;;10.50;nan
7337;BME280;54510;42.016;23.098;2023-02-18T10:41:15;-21440.00;;;11.11;nan
7337;BME280;54510;42.016;23.098;2023-02-18T10:46:25;-21454.28;;;11.63;nan
7337;BME280;54510;42.016;23.098;2023-02-18T10:51:25;-21465.09;;;12.02;nan
7337;BME280;54510;42.016;23.098;2023-02-18T10:53:53;-21465.66;;;12.04;nan
7337;BME280;54510;42.016;23.098;2023-02-18T10:56:36;-21470.09;;;12.20;nan
7337;BME280;54510;42.016;23.098;2023-02-18T10:59:20;-21477.16;;;12.46;nan
7337;BME280;54510;42.016;23.098;2023-02-18T11:01:54;-21481.44;;;12.62;nan
7337;BME280;54510;42.016;23.098;2023-02-18T11:04:25;-21487.53;;;12.84;nan
7337;BME280;54510;42.016;23.098;2023-02-18T11:06:52;-21491.69;;;12.99;nan
7337;BME280;54510;42.016;23.098;2023-02-18T11:09:28;-21490.56;;;12.95;nan
7337;BME280;54510;42.016;23.098;2023-02-18T11:12:12;-21483.94;;;12.71;nan
7337;BME280;54510;42.016;23.098;2023-02-18T11:14:44;-21487.66;;;12.85;nan
7337;BME280;54510;42.016;23.098;2023-02-18T11:17:27;-21494.88;;;13.11;nan
7337;BME280;54510;42.016;23.098;2023-02-18T11:19:55;-21499.72;;;13.29;nan
7337;BME280;54510;42.016;23.098;2023-02-18T11:22:32;-21503.03;;;13.41;nan
7337;BME280;54510;42.016;23.098;2023-02-18T11:25:01;-21506.91;;;13.55;nan
7337;BME280;54510;42.016;23.098;2023-02-18T11:27:40;-21508.84;;;13.62;nan
7337;BME280;54510;42.016;23.098;2023-02-18T11:32:54;-21514.94;;;13.84;nan
7337;BME280;54510;42.016;23.098;2023-02-18T11:35:24;-21519.22;;;14.00;nan
7337;BME280;54510;42.016;23.098;2023-02-18T11:37:52;-21518.81;;;13.99;nan
7337;BME280;54510;42.016;23.098;2023-02-18T11:40:30;-21521.84;;;14.10;nan
7337;BME280;54510;42.016;23.098;2023-02-18T11:43:14;-21522.81;;;14.13;nan
7337;BME280;54510;42.016;23.098;2023-02-18T11:45:41;-21526.53;;;14.27;nan
7337;BME280;54510;42.016;23.098;2023-02-18T11:48:17;-21520.19;;;14.04;nan
7337;BME280;54510;42.016;23.098;2023-02-18T11:50:44;-21528.47;;;14.34;nan
7337;BME280;54510;42.016;23.098;2023-02-18T11:55:54;-21529.31;;;14.37;nan
7337;BME280;54510;42.016;23.098;2023-02-18T11:58:21;-21530.97;;;14.43;nan
7337;BME280;54510;42.016;23.098;2023-02-18T12:00:48;-21537.72;;;14.68;nan
7337;BME280;54510;42.016;23.098;2023-02-18T12:05:50;-21540.22;;;14.77;nan
7337;BME280;54510;42.016;23.098;2023-02-18T12:08:23;-21540.22;;;14.77;nan
7337;BME280;54510;42.016;23.098;2023-02-18T12:10:55;-21542.84;;;14.87;nan
7337;BME280;54510;42.016;23.098;2023-02-18T12:29:39;-21559.13;;;15.47;nan
7337;BME280;54510;42.016;23.098;2023-02-18T12:32:43;-21565.47;;;15.70;nan
7337;BME280;54510;42.016;23.098;2023-02-18T12:44:02;-21573.75;;;16.00;nan
7337;BME280;54510;42.016;23.098;2023-02-18T13:08:38;-21610.81;;;17.36;nan
7337;BME280;54510;42.016;23.098;2023-02-18T13:11:34;-21612.19;;;17.42;nan
7337;BME280;54510;42.016;23.098;2023-02-18T13:14:10;-21619.50;;;17.68;nan
7337;BME280;54510;42.016;23.098;2023-02-18T13:16:40;-21625.41;;;17.90;nan
7337;BME280;54510;42.016;23.098;2023-02-18T13:19:16;-21632.41;;;18.16;nan
7337;BME280;54510;42.016;23.098;2023-02-18T13:21:43;-21642.59;;;18.53;nan
7337;BME280;54510;42.016;23.098;2023-02-18T13:24:24;-21655.09;;;19.00;nan
7337;BME280;54510;42.016;23.098;2023-02-18T13:26:54;-21664.00;;;19.32;nan
7337;BME280;54510;42.016;23.098;2023-02-18T13:29:30;-21671.16;;;19.59;nan
7337;BME280;54510;42.016;23.098;2023-02-18T13:32:37;-21670.06;;;19.55;nan
7337;BME280;54510;42.016;23.098;2023-02-18T13:35:22;-21669.38;;;19.52;nan
7337;BME280;54510;42.016;23.098;2023-02-18T13:38:07;-21677.75;;;19.83;nan
7337;BME280;54510;42.016;23.098;2023-02-18T13:40:37;-21681.72;;;19.98;nan
7337;BME280;54510;42.016;23.098;2023-02-18T13:43:34;-21676.91;;;19.80;nan
7337;BME280;54510;42.016;23.098;2023-02-18T13:46:23;-21684.03;;;20.06;nan
7337;BME280;54510;42.016;23.098;2023-02-18T13:49:10;-21687.75;;;20.20;nan
7337;BME280;54510;42.016;23.098;2023-02-18T13:51:39;-21685.41;;;20.11;nan
7337;BME280;54510;42.016;23.098;2023-02-18T13:56:49;-21698.19;;;20.59;nan
7337;BME280;54510;42.016;23.098;2023-02-18T13:59:19;-21698.44;;;20.60;nan
7337;BME280;54510;42.016;23.098;2023-02-18T14:01:48;-21699.97;;;20.65;nan
7337;BME280;54510;42.016;23.098;2023-02-18T14:10:01;-21714.75;;;21.20;nan
7337;BME280;54510;42.016;23.098;2023-02-18T14:12:37;-21717.50;;;21.30;nan
7337;BME280;54510;42.016;23.098;2023-02-18T14:20:30;-21717.63;;;21.31;nan
7337;BME280;54510;42.016;23.098;2023-02-18T14:22:56;-21710.38;;;21.04;nan
7337;BME280;54510;42.016;23.098;2023-02-18T14:25:33;-21714.19;;;21.18;nan
7337;BME280;54510;42.016;23.098;2023-02-18T14:28:03;-21711.47;;;21.08;nan
7337;BME280;54510;42.016;23.098;2023-02-18T14:30:47;-21712.81;;;21.13;nan
7337;BME280;54510;42.016;23.098;2023-02-18T14:33:14;-21705.16;;;20.84;nan
7337;BME280;54510;42.016;23.098;2023-02-18T14:41:51;-21693.94;;;20.43;nan
7337;BME280;54510;42.016;23.098;2023-02-18T14:44:51;-21689.94;;;20.28;nan
7337;BME280;54510;42.016;23.098;2023-02-18T14:49:52;-21694.19;;;20.44;nan
7337;BME280;54510;42.016;23.098;2023-02-18T14:52:30;-21690.22;;;20.29;nan
7337;BME280;54510;42.016;23.098;2023-02-18T14:54:59;-21684.88;;;20.09;nan
7337;BME280;54510;42.016;23.098;2023-02-18T14:57:35;-21681.31;;;19.96;nan
7337;BME280;54510;42.016;23.098;2023-02-18T15:00:03;-21677.88;;;19.84;nan
7337;BME280;54510;42.016;23.098;2023-02-18T15:02:35;-21680.63;;;19.94;nan
7337;BME280;54510;42.016;23.098;2023-02-18T15:05:23;-21672.66;;;19.64;nan
7337;BME280;54510;42.016;23.098;2023-02-18T15:10:21;-21660.31;;;19.19;nan
7337;BME280;54510;42.016;23.098;2023-02-18T15:12:46;-21656.19;;;19.04;nan
7337;BME280;54510;42.016;23.098;2023-02-18T15:15:14;-21646.56;;;18.68;nan
7337;BME280;54510;42.016;23.098;2023-02-18T15:17:47;-21643.41;;;18.57;nan
7337;BME280;54510;42.016;23.098;2023-02-18T15:20:13;-21642.44;;;18.53;nan
7337;BME280;54510;42.016;23.098;2023-02-18T15:22:39;-21632.41;;;18.16;nan
7337;BME280;54510;42.016;23.098;2023-02-18T15:25:05;-21626.50;;;17.94;nan
7337;BME280;54510;42.016;23.098;2023-02-18T15:27:33;-21625.00;;;17.89;nan
7337;BME280;54510;42.016;23.098;2023-02-18T15:30:18;-21617.56;;;17.61;nan
7337;BME280;54510;42.016;23.098;2023-02-18T15:32:51;-21609.72;;;17.32;nan
7337;BME280;54510;42.016;23.098;2023-02-18T15:35:18;-21604.91;;;17.15;nan
7337;BME280;54510;42.016;23.098;2023-02-18T15:37:45;-21604.22;;;17.12;nan